Time;durP1;ratioP1;P1;durP2;ratioP2;P2;SDS_P1;SDS_P2;PMS_P1;PMS_P2;Temp;Humidity;BMP_temperature;BMP_pressure;BME280_temperature;BME280_humidity;BME280_pressure;Samples;Min_cycle;Max_cycle;Signal;HPM_P1;HPM_P2
2024/01/17 21:22:04;;;;;;;23.23;11.40;;;0.70;99.90;;;;;;5112753;27;20397;-69
2024/01/17 21:24:29;;;;;;;25.63;12.30;;;0.70;99.90;;;;;;5078155;27;20029;-70
2024/01/17 21:26:58;;;;;;;33.65;12.68;;;0.70;99.90;;;;;;5053136;28;20043;-69
2024/01/17 21:29:28;;;;;;;36.22;13.13;;;0.70;99.90;;;;;;5041611;28;20163;-69
2024/01/17 21:31:53;;;;;;;31.70;13.82;;;0.70;99.90;;;;;;5044266;28;20057;-70
2024/01/17 21:34:22;;;;;;;33.78;12.18;;;0.70;99.90;;;;;;5046780;28;20175;-70
2024/01/17 21:36:50;;;;;;;27.75;12.10;;;0.70;99.90;;;;;;5043158;28;20052;-67
2024/01/17 21:39:18;;;;;;;30.42;11.70;;;0.70;99.90;;;;;;5057998;28;20896;-67
2024/01/17 21:41:46;;;;;;;27.38;12.10;;;0.70;99.90;;;;;;5054845;28;20605;-67
2024/01/17 21:44:14;;;;;;;33.10;12.18;;;0.70;99.90;;;;;;5039571;28;20867;-67
2024/01/17 21:46:40;;;;;;;26.85;12.20;;;0.70;99.90;;;;;;5044683;28;20028;-67
2024/01/17 21:49:08;;;;;;;29.80;12.00;;;0.70;99.90;;;;;;5065085;28;20183;-67
2024/01/17 21:51:36;;;;;;;;;;;0.70;99.90;;;;;;5056928;28;20036;-70
2024/01/17 21:54:01;;;;;;;27.95;12.18;;;0.80;99.90;;;;;;5063076;28;20046;-71
2024/01/17 21:56:30;;;;;;;38.97;12.40;;;0.80;99.90;;;;;;5062152;28;20124;-67
2024/01/17 21:59:00;;;;;;;28.77;12.18;;;0.80;99.90;;;;;;5060080;28;20037;-67
2024/01/17 22:01:30;;;;;;;30.08;12.35;;;0.80;99.90;;;;;;5061341;28;20475;-67
2024/01/17 22:03:55;;;;;;;37.90;12.77;;;0.80;99.90;;;;;;5057550;28;20372;-67
2024/01/17 22:06:23;;;;;;;29.35;12.57;;;0.80;99.90;;;;;;5063899;28;20032;-67
2024/01/17 22:08:54;;;;;;;32.67;13.20;;;0.90;99.90;;;;;;5055417;28;20483;-67
2024/01/17 22:11:19;;;;;;;36.75;13.68;;;0.80;99.90;;;;;;5061107;28;20025;-67
2024/01/17 22:13:46;;;;;;;33.65;12.43;;;0.80;99.90;;;;;;5060039;28;20040;-67
2024/01/17 22:16:12;;;;;;;29.63;12.48;;;0.90;99.90;;;;;;5042057;28;20099;-67
2024/01/17 22:18:37;;;;;;;32.58;13.52;;;0.90;99.90;;;;;;5041817;28;20075;-67
2024/01/17 22:21:03;;;;;;;32.42;12.95;;;0.90;99.90;;;;;;5040338;28;20080;-67
2024/01/17 22:23:31;;;;;;;26.98;11.85;;;0.90;99.90;;;;;;5039633;28;20491;-67
2024/01/17 22:25:57;;;;;;;29.33;12.60;;;0.90;99.90;;;;;;5038252;28;20408;-70
2024/01/17 22:28:25;;;;;;;29.52;12.57;;;0.90;99.90;;;;;;5036652;28;20054;-67
2024/01/17 22:30:53;;;;;;;26.63;11.68;;;0.80;99.90;;;;;;5036815;28;20083;-67
2024/01/17 22:33:18;;;;;;;28.50;12.35;;;0.90;99.90;;;;;;5020096;28;20124;-67
2024/01/17 22:35:44;;;;;;;30.05;12.00;;;0.90;99.90;;;;;;5021819;28;22471;-67
2024/01/17 22:38:10;;;;;;;31.17;12.43;;;0.90;99.90;;;;;;5033470;28;20569;-67
2024/01/17 22:40:36;;;;;;;28.15;10.82;;;0.90;99.90;;;;;;5044152;28;20033;-67
2024/01/17 22:43:03;;;;;;;27.25;12.48;;;0.90;99.90;;;;;;5048121;28;20017;-67
2024/01/17 22:45:30;;;;;;;31.55;13.05;;;0.90;99.90;;;;;;5044851;28;20639;-67
2024/01/17 22:47:56;;;;;;;34.67;13.57;;;0.80;99.90;;;;;;5045331;28;20057;-67
2024/01/17 22:50:21;;;;;;;28.85;12.23;;;0.80;99.90;;;;;;5041028;28;20076;-67
2024/01/17 22:52:47;;;;;;;33.92;12.85;;;0.80;99.90;;;;;;5042926;28;20044;-67
2024/01/17 22:55:15;;;;;;;30.23;13.80;;;0.80;99.90;;;;;;5044899;28;20412;-67
2024/01/17 22:57:44;;;;;;;32.40;12.48;;;0.80;99.90;;;;;;5026179;28;20033;-67
2024/01/17 23:00:20;;;;;;;25.77;12.88;;;0.80;99.90;;;;;;5023788;28;20038;-67
2024/01/17 23:02:52;;;;;;;35.40;13.95;;;0.80;99.90;;;;;;5024343;28;20030;-67
2024/01/17 23:05:20;;;;;;;27.77;13.13;;;0.80;99.90;;;;;;5026401;28;20142;-67
2024/01/17 23:07:46;;;;;;;27.55;13.50;;;0.80;99.90;;;;;;5026752;28;20033;-67
2024/01/17 23:10:16;;;;;;;30.35;13.43;;;0.80;99.90;;;;;;5038707;28;20048;-67
2024/01/17 23:12:42;;;;;;;29.52;13.55;;;0.80;99.90;;;;;;5047199;28;20430;-67
2024/01/17 23:15:10;;;;;;;31.02;12.30;;;0.90;99.90;;;;;;5028238;28;20277;-67
2024/01/17 23:17:36;;;;;;;28.90;13.65;;;0.90;99.90;;;;;;5027492;28;20198;-67
2024/01/17 23:20:04;;;;;;;32.85;13.77;;;0.80;99.90;;;;;;5036720;28;20038;-68
2024/01/17 23:22:29;;;;;;;;;;;0.90;99.90;;;;;;5028629;28;20083;-67
2024/01/17 23:24:57;;;;;;;29.08;12.70;;;0.90;99.90;;;;;;5031055;28;19909;-67
2024/01/17 23:27:23;;;;;;;32.05;12.70;;;0.90;99.90;;;;;;5041431;28;20044;-67
2024/01/17 23:29:51;;;;;;;24.45;11.60;;;1.00;99.90;;;;;;5040091;28;20044;-67
2024/01/17 23:32:19;;;;;;;30.77;13.60;;;0.90;99.90;;;;;;5037654;28;20045;-67
2024/01/17 23:34:47;;;;;;;25.27;11.68;;;0.90;99.90;;;;;;5022465;28;20033;-67
2024/01/17 23:37:15;;;;;;;30.52;13.90;;;1.00;99.90;;;;;;5027297;28;20033;-67
2024/01/17 23:39:41;;;;;;;;;;;0.90;99.90;;;;;;5021062;28;20029;-67
2024/01/17 23:42:06;;;;;;;;;;;0.90;99.90;;;;;;5029385;28;19913;-67
2024/01/17 23:44:32;;;;;;;;;;;0.90;99.90;;;;;;5030838;28;19920;-67
2024/01/17 23:46:58;;;;;;;;;;;0.90;99.90;;;;;;5024671;28;20379;-67
2024/01/17 23:49:23;;;;;;;;;;;1.00;99.90;;;;;;5018668;28;19948;-67
2024/01/17 23:51:49;;;;;;;;;;;0.90;99.90;;;;;;5025783;28;19909;-67
2024/01/17 23:54:14;;;;;;;;;;;0.90;99.90;;;;;;5021769;28;19920;-67
2024/01/17 23:56:42;;;;;;;;;;;1.00;99.90;;;;;;5019134;28;19913;-68
2024/01/17 23:59:07;;;;;;;;;;;0.90;99.90;;;;;;5025068;28;20360;-68
